createdAt,value
2023-04-03T00:01:10.059Z,8.50
2023-04-03T00:03:37.731Z,8.30
2023-04-03T00:06:07.871Z,8.20
2023-04-03T00:08:35.204Z,8.20
2023-04-03T00:11:03.068Z,8.10
2023-04-03T00:13:30.939Z,8.10
2023-04-03T00:15:58.277Z,8.10
2023-04-03T00:18:25.759Z,8.10
2023-04-03T00:20:52.956Z,8.00
2023-04-03T00:23:20.092Z,8.10
2023-04-03T00:25:47.388Z,8.00
2023-04-03T00:28:14.646Z,8.30
2023-04-03T00:30:42.200Z,8.50
2023-04-03T00:33:13.204Z,8.40
2023-04-03T00:35:40.673Z,8.40
2023-04-03T00:38:08.265Z,8.50
2023-04-03T00:40:42.435Z,8.50
2023-04-03T00:43:22.704Z,8.50
2023-04-03T00:45:54.207Z,8.50
2023-04-03T00:48:33.757Z,8.40
2023-04-03T00:51:02.379Z,8.50
2023-04-03T00:53:38.421Z,8.20
2023-04-03T00:56:10.158Z,8.20
2023-04-03T00:59:00.954Z,8.00
2023-04-03T01:01:30.777Z,8.20
2023-04-03T01:04:00.064Z,8.00
2023-04-03T01:06:32.292Z,8.10
2023-04-03T01:09:06.294Z,8.20
2023-04-03T01:11:34.087Z,8.20
2023-04-03T01:14:03.095Z,8.20
2023-04-03T01:16:33.108Z,7.10
2023-04-03T01:19:02.443Z,7.90
2023-04-03T01:22:14.236Z,7.80
2023-04-03T01:24:42.339Z,7.00
2023-04-03T01:27:13.323Z,7.90
2023-04-03T01:29:42.892Z,7.60
2023-04-03T01:32:10.684Z,8.50
2023-04-03T01:34:38.651Z,7.80
2023-04-03T01:37:06.638Z,7.90
2023-04-03T01:39:33.996Z,7.20
2023-04-03T01:42:01.767Z,6.80
2023-04-03T01:44:35.812Z,7.80
2023-04-03T01:47:03.379Z,7.70
2023-04-03T01:49:31.520Z,7.60
2023-04-03T01:51:59.140Z,6.50
2023-04-03T01:54:26.727Z,7.70
2023-04-03T01:56:54.491Z,7.40
2023-04-03T01:59:25.768Z,7.50
2023-04-03T02:01:53.369Z,7.40
2023-04-03T02:04:21.152Z,7.30
2023-04-03T02:06:50.285Z,7.30
2023-04-03T02:09:23.190Z,7.20
2023-04-03T02:11:52.076Z,7.30
2023-04-03T02:14:24.677Z,7.30
2023-04-03T02:16:52.210Z,7.50
2023-04-03T02:19:19.685Z,7.40
2023-04-03T02:21:47.317Z,6.30
2023-04-03T02:24:16.144Z,7.30
2023-04-03T02:26:48.847Z,8.20
2023-04-03T02:29:16.560Z,7.30
2023-04-03T02:31:43.882Z,7.30
2023-04-03T02:34:12.253Z,7.10
2023-04-03T02:36:39.761Z,6.70
2023-04-03T02:39:09.838Z,7.20
2023-04-03T02:41:37.351Z,7.10
2023-04-03T02:44:11.924Z,7.20
2023-04-03T02:46:39.207Z,7.10
2023-04-03T02:49:06.966Z,7.10
2023-04-03T02:51:34.429Z,7.30
2023-04-03T02:54:02.286Z,7.20
2023-04-03T02:56:33.064Z,7.20
2023-04-03T02:59:00.342Z,7.10
2023-04-03T03:01:32.554Z,7.20
2023-04-03T03:04:01.525Z,7.30
2023-04-03T03:06:28.931Z,7.30
2023-04-03T03:08:56.324Z,7.30
2023-04-03T03:11:23.588Z,7.20
2023-04-03T03:13:51.028Z,7.10
2023-04-03T03:16:18.200Z,7.10
2023-04-03T03:18:45.676Z,6.60
2023-04-03T03:21:13.241Z,7.10
2023-04-03T03:23:40.836Z,6.40
2023-04-03T03:26:11.244Z,6.40
2023-04-03T03:28:39.785Z,6.90
2023-04-03T03:31:07.400Z,6.80
2023-04-03T03:33:36.847Z,6.80
2023-04-03T03:36:04.569Z,6.80
2023-04-03T03:38:32.049Z,6.80
2023-04-03T03:41:02.152Z,6.80
2023-04-03T03:43:31.401Z,6.80
2023-04-03T03:45:58.662Z,6.80
2023-04-03T03:48:27.729Z,6.70
2023-04-03T03:50:55.017Z,5.90
2023-04-03T03:53:26.009Z,6.70
2023-04-03T03:55:57.305Z,6.70
2023-04-03T03:58:31.436Z,6.60
2023-04-03T04:01:03.667Z,6.70
2023-04-03T04:03:34.777Z,6.70
2023-04-03T04:06:03.072Z,6.50
2023-04-03T04:08:30.462Z,6.50
2023-04-03T04:10:57.903Z,6.50
2023-04-03T04:13:25.395Z,6.50
2023-04-03T04:15:52.835Z,6.50
2023-04-03T04:18:22.461Z,6.50
2023-04-03T04:20:50.643Z,6.40
2023-04-03T04:23:20.155Z,6.30
2023-04-03T04:25:50.148Z,7.00
2023-04-03T04:28:18.489Z,7.80
2023-04-03T04:30:47.746Z,6.20
2023-04-03T04:33:17.526Z,6.30
2023-04-03T04:35:48.387Z,6.30
2023-04-03T04:38:17.442Z,5.80
2023-04-03T04:40:44.848Z,6.10
2023-04-03T04:43:15.637Z,6.10
2023-04-03T04:45:46.073Z,6.10
2023-04-03T04:48:14.000Z,6.40
2023-04-03T04:50:41.466Z,5.10
2023-04-03T04:53:09.688Z,6.00
2023-04-03T04:55:37.392Z,6.10
2023-04-03T04:58:06.694Z,6.10
2023-04-03T05:00:35.141Z,6.00
2023-04-03T05:03:02.766Z,6.00
2023-04-03T05:05:30.569Z,5.90
2023-04-03T05:07:58.661Z,6.40
2023-04-03T05:10:27.365Z,6.10
2023-04-03T05:12:54.995Z,5.90
2023-04-03T05:15:22.700Z,6.00
2023-04-03T05:17:50.511Z,6.60
2023-04-03T05:20:18.683Z,6.20
2023-04-03T05:22:47.451Z,6.10
2023-04-03T05:25:18.000Z,6.00
2023-04-03T05:27:48.829Z,6.10
2023-04-03T05:30:16.370Z,6.00
2023-04-03T05:32:44.203Z,6.10
2023-04-03T05:35:20.270Z,6.20
2023-04-03T05:37:50.806Z,6.30
2023-04-03T05:40:19.789Z,6.60
2023-04-03T05:42:50.685Z,6.50
2023-04-03T05:45:20.285Z,6.30
2023-04-03T05:47:48.463Z,6.60
2023-04-03T05:50:16.418Z,5.90
2023-04-03T05:52:48.232Z,6.70
2023-04-03T05:55:19.310Z,6.40
2023-04-03T05:57:46.722Z,6.30
2023-04-03T06:00:16.788Z,6.40
2023-04-03T06:02:51.105Z,6.40
2023-04-03T06:05:23.791Z,6.50
2023-04-03T06:07:51.795Z,6.50
2023-04-03T06:10:19.444Z,6.50
2023-04-03T06:12:47.061Z,6.50
2023-04-03T06:15:14.505Z,6.60
2023-04-03T06:17:42.030Z,6.50
2023-04-03T06:20:10.572Z,6.50
2023-04-03T06:22:40.494Z,6.50
2023-04-03T06:25:08.536Z,6.60
2023-04-03T06:27:35.985Z,6.30
2023-04-03T06:30:03.450Z,7.00
2023-04-03T06:32:31.245Z,7.00
2023-04-03T06:34:59.511Z,7.10
2023-04-03T06:37:30.933Z,7.10
2023-04-03T06:39:58.322Z,7.10
2023-04-03T06:42:28.320Z,7.00
2023-04-03T06:45:03.056Z,6.90
2023-04-03T06:47:33.185Z,6.90
2023-04-03T06:50:04.306Z,7.10
2023-04-03T06:52:34.758Z,7.00
2023-04-03T06:55:02.080Z,7.20
2023-04-03T06:57:29.388Z,8.50
2023-04-03T06:59:57.093Z,7.30
2023-04-03T07:02:24.474Z,7.70
2023-04-03T07:04:52.001Z,7.70
2023-04-03T07:07:19.558Z,8.40
2023-04-03T07:09:49.198Z,8.60
2023-04-03T07:12:17.357Z,8.30
2023-04-03T07:14:45.078Z,8.10
2023-04-03T07:17:12.574Z,8.30
2023-04-03T07:19:40.226Z,7.90
2023-04-03T07:22:07.899Z,8.00
2023-04-03T07:24:35.874Z,8.10
2023-04-03T07:27:06.743Z,8.10
2023-04-03T07:29:34.100Z,8.30
2023-04-03T07:32:01.897Z,7.30
2023-04-03T07:34:29.614Z,8.10
2023-04-03T07:36:57.911Z,8.30
2023-04-03T07:39:29.303Z,8.50
2023-04-03T07:41:57.297Z,8.50
2023-04-03T07:44:25.306Z,8.50
2023-04-03T07:46:52.678Z,9.30
2023-04-03T07:49:20.527Z,8.50
2023-04-03T07:51:47.884Z,9.00
2023-04-03T07:54:15.676Z,9.40
2023-04-03T07:56:46.890Z,9.20
2023-04-03T07:59:14.371Z,9.10
2023-04-03T08:01:42.123Z,9.10
2023-04-03T08:04:09.620Z,9.10
2023-04-03T08:06:45.800Z,9.00
2023-04-03T08:09:16.524Z,8.80
2023-04-03T08:11:45.315Z,8.70
2023-04-03T08:14:18.001Z,8.90
2023-04-03T08:16:47.798Z,9.00
2023-04-03T08:19:25.368Z,8.70
2023-04-03T08:21:56.422Z,8.80
2023-04-03T08:24:26.361Z,8.80
2023-04-03T08:26:53.850Z,9.00
2023-04-03T08:29:22.479Z,9.00
2023-04-03T08:31:51.378Z,9.00
2023-04-03T08:34:19.677Z,9.10
2023-04-03T08:36:50.355Z,8.90
2023-04-03T08:39:17.873Z,9.00
2023-04-03T08:41:49.152Z,9.50
2023-04-03T08:44:26.363Z,9.30
2023-04-03T08:47:00.165Z,9.40
2023-04-03T08:49:52.511Z,9.30
2023-04-03T08:52:41.793Z,9.30
2023-04-03T08:55:22.692Z,9.20
2023-04-03T08:57:54.786Z,9.50
2023-04-03T09:00:26.077Z,9.50
2023-04-03T09:03:01.477Z,9.70
2023-04-03T09:05:49.407Z,9.60
2023-04-03T09:08:24.049Z,9.60
2023-04-03T09:11:01.449Z,9.60
2023-04-03T09:13:44.776Z,9.50
2023-04-03T09:16:31.821Z,9.80
2023-04-03T09:19:25.541Z,9.80
2023-04-03T09:21:53.458Z,9.90
2023-04-03T09:24:24.378Z,9.80
2023-04-03T09:27:07.653Z,9.90
2023-04-03T09:29:44.503Z,10.10
2023-04-03T09:32:38.309Z,10.20
2023-04-03T09:35:32.830Z,10.40
2023-04-03T09:38:14.422Z,10.40
2023-04-03T09:41:03.863Z,10.60
2023-04-03T09:43:36.847Z,10.70
2023-04-03T09:46:33.156Z,11.30
2023-04-03T09:49:09.833Z,11.10
2023-04-03T09:51:38.079Z,11.30
2023-04-03T09:54:33.492Z,11.70
2023-04-03T09:57:09.738Z,11.90
2023-04-03T09:59:40.414Z,11.00
2023-04-03T10:02:37.961Z,12.10
2023-04-03T10:05:26.442Z,12.00
2023-04-03T10:08:08.851Z,11.40
2023-04-03T10:10:37.413Z,10.90
2023-04-03T10:13:20.185Z,11.70
2023-04-03T10:16:03.780Z,11.80
2023-04-03T10:19:07.288Z,11.80
2023-04-03T10:21:57.792Z,11.80
2023-04-03T10:24:43.289Z,11.50
2023-04-03T10:27:20.251Z,10.90
2023-04-03T10:30:02.698Z,10.60
2023-04-03T10:32:42.640Z,10.70
2023-04-03T10:35:55.564Z,10.80
2023-04-03T10:38:32.496Z,10.60
2023-04-03T10:41:15.266Z,10.70
2023-04-03T10:43:56.491Z,11.00
2023-04-03T10:46:47.895Z,11.00
2023-04-03T10:49:57.177Z,10.10
2023-04-03T10:52:42.051Z,11.00
2023-04-03T10:55:21.716Z,11.10
2023-04-03T10:57:50.469Z,11.10
2023-04-03T11:00:21.946Z,11.10
2023-04-03T11:02:55.180Z,11.00
2023-04-03T11:05:43.375Z,11.00
2023-04-03T11:08:17.305Z,11.20
2023-04-03T11:10:49.551Z,11.40
2023-04-03T11:13:34.515Z,11.00
2023-04-03T11:16:02.471Z,10.90
2023-04-03T11:18:42.283Z,10.80
2023-04-03T11:21:20.259Z,10.90
2023-04-03T11:23:49.859Z,10.90
2023-04-03T11:26:29.666Z,11.10
2023-04-03T11:29:17.899Z,11.20
2023-04-03T11:32:06.999Z,11.00
2023-04-03T11:34:54.670Z,11.40
2023-04-03T11:37:39.537Z,11.40
2023-04-03T11:40:28.253Z,11.40
2023-04-03T11:43:01.229Z,11.60
2023-04-03T11:45:37.137Z,11.30
2023-04-03T11:48:34.218Z,10.80
2023-04-03T11:51:30.390Z,11.40
2023-04-03T11:54:44.449Z,11.40
2023-04-03T11:58:06.153Z,11.60
2023-04-03T12:00:48.654Z,11.70
2023-04-03T12:03:41.743Z,11.90
2023-04-03T12:06:11.019Z,12.00
2023-04-03T12:08:41.686Z,11.80
2023-04-03T12:11:14.745Z,11.80
2023-04-03T12:13:43.563Z,11.70
2023-04-03T12:16:41.209Z,11.50
2023-04-03T12:19:46.084Z,11.30
2023-04-03T12:22:23.119Z,11.60
2023-04-03T12:24:53.248Z,11.60
2023-04-03T12:27:44.942Z,11.50
2023-04-03T12:30:22.520Z,11.60
2023-04-03T12:33:18.861Z,11.00
2023-04-03T12:35:55.618Z,11.70
2023-04-03T12:38:47.346Z,11.70
2023-04-03T12:41:45.129Z,11.70
2023-04-03T12:44:18.985Z,11.80
2023-04-03T12:46:50.221Z,11.70
2023-04-03T12:49:42.258Z,10.50
2023-04-03T12:52:33.805Z,11.90
2023-04-03T12:55:05.247Z,11.40
2023-04-03T12:57:33.756Z,11.60
2023-04-03T13:00:01.925Z,11.20
2023-04-03T13:02:32.358Z,11.80
2023-04-03T13:05:06.183Z,11.80
2023-04-03T13:07:38.469Z,11.60
2023-04-03T13:10:06.566Z,11.50
2023-04-03T13:12:34.538Z,11.70
2023-04-03T13:15:13.071Z,11.60
2023-04-03T13:17:44.308Z,11.60
2023-04-03T13:20:29.651Z,11.50
2023-04-03T13:23:09.482Z,12.70
2023-04-03T13:25:41.623Z,12.10
2023-04-03T13:28:14.250Z,11.80
2023-04-03T13:30:55.177Z,11.70
2023-04-03T13:33:25.909Z,11.80
2023-04-03T13:36:01.739Z,12.00
2023-04-03T13:38:35.114Z,11.60
2023-04-03T13:43:53.783Z,11.90
2023-04-03T13:46:28.833Z,11.80
2023-04-03T13:48:57.902Z,11.80
2023-04-03T13:51:27.030Z,11.00
2023-04-03T13:54:01.617Z,11.80
2023-04-03T13:56:38.393Z,11.50
2023-04-03T13:59:17.316Z,11.70
2023-04-03T14:01:51.633Z,11.70
2023-04-03T14:04:20.933Z,11.50
2023-04-03T14:06:49.145Z,11.60
2023-04-03T14:09:21.368Z,11.50
2023-04-03T14:11:52.689Z,11.60
2023-04-03T14:14:23.254Z,11.80
2023-04-03T14:16:56.874Z,11.70
2023-04-03T14:19:29.011Z,10.90
2023-04-03T14:21:57.022Z,11.80
2023-04-03T14:24:25.425Z,11.70
2023-04-03T14:26:59.251Z,11.60
2023-04-03T14:29:33.116Z,11.40
2023-04-03T14:32:13.880Z,11.40
2023-04-03T14:34:44.006Z,11.50
2023-04-03T14:37:14.914Z,11.50
2023-04-03T14:39:46.664Z,11.50
2023-04-03T14:42:24.207Z,11.50
2023-04-03T14:44:52.497Z,11.40
2023-04-03T14:47:31.859Z,11.50
2023-04-03T14:50:05.922Z,11.40
2023-04-03T14:52:36.927Z,11.40
2023-04-03T14:55:07.300Z,11.40
2023-04-03T14:57:35.311Z,11.40
2023-04-03T15:00:04.800Z,11.30
2023-04-03T15:02:38.806Z,11.30
2023-04-03T15:05:10.003Z,11.30
2023-04-03T15:07:43.355Z,11.10
2023-04-03T15:10:21.157Z,11.10
2023-04-03T15:12:50.160Z,11.10
2023-04-03T15:15:21.003Z,10.80
2023-04-03T15:17:55.233Z,10.30
2023-04-03T15:20:25.771Z,10.90
2023-04-03T15:22:53.662Z,10.90
2023-04-03T15:25:21.134Z,10.80
2023-04-03T15:27:48.687Z,10.80
2023-04-03T15:30:18.873Z,10.90
2023-04-03T15:32:46.834Z,10.50
2023-04-03T15:35:14.947Z,10.90
2023-04-03T15:37:42.324Z,10.80
2023-04-03T15:40:10.164Z,10.80
2023-04-03T15:42:38.018Z,10.70
2023-04-03T15:45:06.538Z,10.70
2023-04-03T15:47:34.139Z,10.70
2023-04-03T15:50:01.787Z,10.70
2023-04-03T15:52:29.415Z,10.70
2023-04-03T15:54:56.806Z,10.60
2023-04-03T15:57:27.463Z,10.60
2023-04-03T15:59:55.304Z,10.50
2023-04-03T16:02:22.613Z,10.50
2023-04-03T16:04:50.543Z,10.40
2023-04-03T16:07:25.367Z,10.40
2023-04-03T16:09:53.543Z,10.40
2023-04-03T16:12:21.539Z,10.40
2023-04-03T16:14:49.191Z,10.10
2023-04-03T16:17:17.392Z,9.80
2023-04-03T16:19:45.460Z,10.30
2023-04-03T16:22:13.496Z,10.30
2023-04-03T16:24:41.336Z,10.20
2023-04-03T16:27:09.146Z,10.20
2023-04-03T16:29:37.918Z,10.00
2023-04-03T16:32:06.107Z,9.90
2023-04-03T16:34:34.176Z,9.90
2023-04-03T16:37:02.422Z,9.90
2023-04-03T16:39:30.455Z,9.80
2023-04-03T16:41:58.395Z,9.50
2023-04-03T16:44:26.704Z,9.60
2023-04-03T16:46:54.428Z,9.50
2023-04-03T16:49:22.481Z,9.50
2023-04-03T16:51:50.862Z,9.40
2023-04-03T16:54:18.670Z,9.30
2023-04-03T16:56:46.589Z,9.40
2023-04-03T16:59:15.355Z,9.40
2023-04-03T17:01:43.803Z,9.30
2023-04-03T17:04:12.066Z,9.30
2023-04-03T17:06:41.104Z,9.30
2023-04-03T17:09:10.587Z,8.40
2023-04-03T17:11:39.457Z,9.10
2023-04-03T17:14:07.251Z,9.00
2023-04-03T17:16:36.874Z,9.10
2023-04-03T17:19:05.502Z,9.00
2023-04-03T17:21:35.128Z,9.00
2023-04-03T17:24:09.700Z,9.00
2023-04-03T17:26:40.673Z,8.80
2023-04-03T17:29:08.749Z,8.90
2023-04-03T17:31:36.906Z,8.70
2023-04-03T17:34:05.450Z,8.20
2023-04-03T17:36:35.532Z,8.40
2023-04-03T17:39:03.346Z,8.50
2023-04-03T17:41:31.083Z,8.60
2023-04-03T17:44:00.251Z,7.50
2023-04-03T17:46:28.227Z,8.40
2023-04-03T17:48:59.826Z,7.60
2023-04-03T17:51:30.973Z,8.20
2023-04-03T17:53:58.899Z,8.10
2023-04-03T17:56:28.138Z,8.10
2023-04-03T17:58:58.471Z,7.80
2023-04-03T18:01:32.939Z,8.00
2023-04-03T18:04:03.667Z,8.00
2023-04-03T18:06:40.545Z,8.00
2023-04-03T18:09:12.251Z,8.00
2023-04-03T18:11:40.642Z,8.00
2023-04-03T18:14:10.379Z,8.00
2023-04-03T18:16:38.451Z,8.00
2023-04-03T18:19:21.082Z,7.30
2023-04-03T18:21:51.832Z,7.90
2023-04-03T18:24:22.232Z,7.90
2023-04-03T18:26:59.588Z,6.60
2023-04-03T18:29:31.243Z,7.80
2023-04-03T18:32:02.916Z,7.80
2023-04-03T18:34:32.543Z,7.60
2023-04-03T18:37:01.311Z,7.90
2023-04-03T18:39:30.848Z,7.60
2023-04-03T18:42:04.821Z,7.50
2023-04-03T18:44:35.078Z,7.40
2023-04-03T18:47:03.606Z,6.10
2023-04-03T18:49:35.568Z,7.30
2023-04-03T18:52:05.312Z,7.20
2023-04-03T18:54:33.740Z,7.40
2023-04-03T18:57:02.496Z,7.30
2023-04-03T18:59:30.512Z,7.30
2023-04-03T19:02:00.464Z,7.30
2023-04-03T19:04:29.549Z,7.20
2023-04-03T19:06:57.384Z,7.20
2023-04-03T19:09:28.428Z,7.20
2023-04-03T19:11:57.158Z,6.20
2023-04-03T19:14:25.594Z,7.00
2023-04-03T19:17:13.543Z,6.70
2023-04-03T19:19:42.654Z,6.80
2023-04-03T19:22:11.661Z,6.70
2023-04-03T19:24:39.764Z,6.60
2023-04-03T19:27:07.717Z,6.70
2023-04-03T19:29:35.812Z,6.60
2023-04-03T19:32:04.370Z,6.70
2023-04-03T19:34:37.917Z,6.60
2023-04-03T19:37:06.759Z,6.70
2023-04-03T19:39:44.367Z,6.70
2023-04-03T19:42:13.255Z,6.70
2023-04-03T19:44:44.761Z,6.50
2023-04-03T19:47:13.548Z,6.40
2023-04-03T19:49:45.032Z,6.50
2023-04-03T19:52:14.305Z,6.80
2023-04-03T19:54:42.503Z,6.40
2023-04-03T19:57:12.498Z,6.40
2023-04-03T19:59:44.102Z,5.80
2023-04-03T20:02:12.612Z,6.40
2023-04-03T20:04:41.361Z,6.50
2023-04-03T20:07:10.750Z,6.40
2023-04-03T20:11:47.588Z,6.40
2023-04-03T20:14:17.954Z,6.30
2023-04-03T20:16:45.824Z,6.10
2023-04-03T20:19:14.148Z,6.10
2023-04-03T20:21:44.878Z,6.10
2023-04-03T20:24:15.029Z,6.10
2023-04-03T20:26:46.527Z,6.70
2023-04-03T20:29:17.918Z,6.20
2023-04-03T20:31:48.502Z,6.10
2023-04-03T20:34:16.533Z,6.10
2023-04-03T20:36:44.403Z,6.00
2023-04-03T20:39:11.997Z,5.80
2023-04-03T20:41:39.570Z,5.90
2023-04-03T20:44:06.857Z,5.60
2023-04-03T20:46:48.975Z,5.50
2023-04-03T20:49:21.386Z,5.70
2023-04-03T20:51:52.760Z,5.70
2023-04-03T20:54:20.113Z,5.70
2023-04-03T20:56:49.975Z,5.50
2023-04-03T20:59:18.595Z,4.60
2023-04-03T21:01:47.081Z,5.60
2023-04-03T21:04:30.578Z,5.60
2023-04-03T21:07:37.898Z,5.40
2023-04-03T21:10:42.943Z,5.30
2023-04-03T21:13:48.020Z,5.30
2023-04-03T21:16:15.282Z,5.30
2023-04-03T21:18:56.526Z,5.10
2023-04-03T21:21:26.361Z,5.10
2023-04-03T21:23:55.557Z,5.10
2023-04-03T21:26:25.612Z,5.00
2023-04-03T21:28:54.365Z,4.90
2023-04-03T21:31:23.175Z,4.90
2023-04-03T21:33:51.177Z,4.90
2023-04-03T21:36:18.514Z,4.80
2023-04-03T21:38:47.809Z,4.70
2023-04-03T21:41:15.017Z,4.70
2023-04-03T21:43:42.196Z,3.40
2023-04-03T21:46:09.391Z,4.70
2023-04-03T21:48:36.927Z,4.60
2023-04-03T21:51:05.602Z,4.50
2023-04-03T21:53:34.647Z,4.60
2023-04-03T21:56:04.845Z,4.70
2023-04-03T21:58:33.081Z,4.70
2023-04-03T22:01:14.135Z,4.50
2023-04-03T22:03:42.999Z,4.60
2023-04-03T22:06:11.733Z,4.60
2023-04-03T22:08:39.612Z,4.50
2023-04-03T22:11:14.127Z,4.40
2023-04-03T22:13:42.005Z,4.50
2023-04-03T22:16:15.686Z,3.10
2023-04-03T22:18:43.004Z,4.50
2023-04-03T22:21:10.366Z,4.40
2023-04-03T22:23:38.167Z,4.50
2023-04-03T22:26:08.241Z,4.50
2023-04-03T22:28:38.873Z,4.40
2023-04-03T22:31:11.776Z,4.40
2023-04-03T22:33:39.354Z,4.40
2023-04-03T22:36:09.562Z,4.40
2023-04-03T22:38:38.615Z,4.40
2023-04-03T22:41:07.517Z,4.40
2023-04-03T22:43:36.586Z,4.40
2023-04-03T22:46:08.941Z,4.50
2023-04-03T22:48:38.838Z,4.40
2023-04-03T22:51:09.192Z,4.40
2023-04-03T22:53:37.245Z,4.40
2023-04-03T22:56:08.851Z,4.40
2023-04-03T22:58:36.022Z,4.50
2023-04-03T23:01:14.254Z,4.40
2023-04-03T23:03:42.983Z,4.40
2023-04-03T23:06:11.013Z,4.50
2023-04-03T23:08:39.197Z,4.10
2023-04-03T23:11:09.911Z,3.20
2023-04-03T23:13:37.540Z,4.40
2023-04-03T23:16:05.528Z,4.40
2023-04-03T23:18:33.590Z,5.30
2023-04-03T23:21:03.714Z,4.30
2023-04-03T23:23:32.111Z,3.20
2023-04-03T23:26:01.518Z,4.30
2023-04-03T23:28:33.274Z,4.30
2023-04-03T23:31:03.027Z,4.20
2023-04-03T23:33:31.888Z,4.30
2023-04-03T23:36:01.397Z,4.10
2023-04-03T23:38:29.767Z,3.20
2023-04-03T23:40:57.312Z,3.90
2023-04-03T23:43:24.591Z,2.90
2023-04-03T23:45:51.976Z,3.90
2023-04-03T23:48:19.520Z,3.90
2023-04-03T23:50:47.082Z,3.90
2023-04-03T23:53:14.481Z,3.90
2023-04-03T23:55:44.620Z,3.90
2023-04-03T23:58:12.152Z,2.70
